PWSweather.com
Personal Weather Stations
Station Observations
KCTHAMDEN
Dunbar Hill, Hamden, CT 06514

Dunbar HillHamden, CT 06514

Lat: 41.365437, Lon: -72.956532

Elevation: 200

Station Type: Davis Vantage Pro2+

www.hamdenweather.com

High Low Average
Temperature 87.7°F30.9°C 68.9°F20.5°C 78.3°F25.7°C
Dew Point 78.4°F25.8°C 67.7°F19.8°C 73.5°F23.1°C
Winds 3.8 mph 6.1 kmh Calm Calm Calm SSECalm SSE
Wind Gusts 13.0 mph20.9 kmh -- 1.0 mph1.6 kmh
Humidity 98% 70% 86%
Pressure 30.08 in1018.6 mb 29.92 in1013.2 mb -
Precipitation 0.14 in3.6 mm - -
Hour Temp Dew Point Humidity Winds Wind Gusts Pressure Precip Precip Rate Daily Precip Total
12:00 AM 70.7°F21.5°C 68.9°F20.5°C 94% Calm Calm -- 30.07 in1018.3 mb - 0.00 in0.0 mm 0.00 in0.0 mm
12:15 AM 70.5°F21.4°C 68.7°F20.4°C 94% Calm Calm -- 30.07 in1018.3 mb - 0.00 in0.0 mm 0.00 in0.0 mm
12:30 AM 70.4°F21.3°C 68.9°F20.5°C 95% Calm Calm -- 30.07 in1018.3 mb - 0.00 in0.0 mm 0.00 in0.0 mm
12:45 AM 70.3°F21.3°C 68.8°F20.4°C 95% Calm Calm -- 30.07 in1018.3 mb - 0.00 in0.0 mm 0.00 in0.0 mm
01:00 AM 70.3°F21.3°C 68.8°F20.4°C 95% Calm Calm -- 30.07 in1018.3 mb - 0.00 in0.0 mm 0.00 in0.0 mm
01:15 AM 70.4°F21.3°C 69.2°F20.7°C 96% Calm Calm -- 30.07 in1018.3 mb - 0.00 in0.0 mm 0.00 in0.0 mm
01:30 AM 70.5°F21.4°C 69.3°F20.7°C 96% Calm Calm -- 30.07 in1018.3 mb - 0.00 in0.0 mm 0.00 in0.0 mm
01:45 AM 70.6°F21.4°C 69.4°F20.8°C 96% Calm Calm -- 30.07 in1018.3 mb - 0.00 in0.0 mm 0.00 in0.0 mm
02:00 AM 70.7°F21.5°C 69.5°F20.8°C 96% Calm Calm -- 30.06 in1017.9 mb - 0.00 in0.0 mm 0.00 in0.0 mm
02:15 AM 70.7°F21.5°C 69.5°F20.8°C 96% Calm Calm -- 30.06 in1017.9 mb - 0.00 in0.0 mm 0.00 in0.0 mm
02:30 AM 70.6°F21.4°C 69.4°F20.8°C 96% Calm Calm -- 30.06 in1017.9 mb - 0.00 in0.0 mm 0.00 in0.0 mm
02:45 AM 70.4°F21.3°C 69.3°F20.7°C 96% Calm Calm -- 30.06 in1017.9 mb - 0.00 in0.0 mm 0.00 in0.0 mm
03:00 AM 70.2°F21.2°C 69.0°F20.6°C 96% Calm Calm -- 30.06 in1017.9 mb - 0.00 in0.0 mm 0.00 in0.0 mm
03:15 AM 70.3°F21.3°C 69.1°F20.6°C 96% Calm Calm -- 30.06 in1017.9 mb - 0.00 in0.0 mm 0.00 in0.0 mm
03:30 AM 70.1°F21.2°C 68.9°F20.5°C 96% Calm Calm -- 30.06 in1017.9 mb - 0.00 in0.0 mm 0.00 in0.0 mm
03:45 AM 69.7°F20.9°C 68.5°F20.3°C 96% Calm Calm -- 30.06 in1017.9 mb - 0.00 in0.0 mm 0.00 in0.0 mm
04:00 AM 69.8°F21.0°C 68.9°F20.5°C 97% Calm Calm -- 30.07 in1018.3 mb - 0.00 in0.0 mm 0.00 in0.0 mm
04:15 AM 69.7°F20.9°C 68.5°F20.3°C 96% Calm Calm -- 30.07 in1018.3 mb - 0.00 in0.0 mm 0.00 in0.0 mm
04:30 AM 69.5°F20.8°C 68.3°F20.2°C 96% Calm Calm -- 30.07 in1018.3 mb - 0.00 in0.0 mm 0.00 in0.0 mm
04:45 AM 69.3°F20.7°C 68.1°F20.1°C 96% Calm Calm -- 30.07 in1018.3 mb - 0.00 in0.0 mm 0.00 in0.0 mm
05:00 AM 69.1°F20.6°C 67.9°F19.9°C 96% Calm Calm -- 30.07 in1018.3 mb - 0.00 in0.0 mm 0.00 in0.0 mm
05:15 AM 69.0°F20.6°C 67.8°F19.9°C 96% Calm Calm -- 30.07 in1018.3 mb - 0.00 in0.0 mm 0.00 in0.0 mm
05:30 AM 68.9°F20.5°C 67.7°F19.8°C 96% Calm Calm -- 30.07 in1018.3 mb - 0.00 in0.0 mm 0.00 in0.0 mm
05:45 AM 69.1°F20.6°C 68.2°F20.1°C 97% Calm Calm -- 30.07 in1018.3 mb - 0.00 in0.0 mm 0.00 in0.0 mm
06:00 AM 69.3°F20.7°C 68.4°F20.2°C 97% Calm Calm -- 30.07 in1018.3 mb - 0.00 in0.0 mm 0.00 in0.0 mm
06:15 AM 69.7°F20.9°C 68.8°F20.4°C 97% Calm Calm -- 30.07 in1018.3 mb - 0.00 in0.0 mm 0.00 in0.0 mm
06:30 AM 70.8°F21.6°C 69.9°F21.1°C 97% Calm Calm -- 30.07 in1018.3 mb - 0.00 in0.0 mm 0.00 in0.0 mm
06:45 AM 72.0°F22.2°C 71.4°F21.9°C 98% Calm Calm -- 30.07 in1018.3 mb - 0.00 in0.0 mm 0.00 in0.0 mm
07:00 AM 72.7°F22.6°C 72.1°F22.3°C 98% Calm Calm -- 30.07 in1018.3 mb - 0.00 in0.0 mm 0.00 in0.0 mm
07:15 AM 74.0°F23.3°C 73.4°F23.0°C 98% Calm Calm -- 30.07 in1018.3 mb - 0.00 in0.0 mm 0.00 in0.0 mm
07:30 AM 75.5°F24.2°C 74.9°F23.8°C 98% 0.6 mph S1.0 kmh S 2.0 mph3.2 kmh 30.08 in1018.6 mb - 0.00 in0.0 mm 0.00 in0.0 mm
07:45 AM 76.4°F24.7°C 75.5°F24.2°C 97% Calm Calm -- 30.08 in1018.6 mb - 0.00 in0.0 mm 0.00 in0.0 mm
08:00 AM 78.2°F25.7°C 76.4°F24.7°C 94% 1.1 mph S1.8 kmh S 2.0 mph3.2 kmh 30.08 in1018.6 mb - 0.00 in0.0 mm 0.00 in0.0 mm
08:15 AM 80.3°F26.8°C 75.8°F24.3°C 86% 0.6 mph ESE1.0 kmh ESE 1.0 mph1.6 kmh 30.08 in1018.6 mb - 0.00 in0.0 mm 0.00 in0.0 mm
08:30 AM 81.8°F27.7°C 76.1°F24.5°C 83% 0.4 mph ESE0.6 kmh ESE 1.0 mph1.6 kmh 30.07 in1018.3 mb - 0.00 in0.0 mm 0.00 in0.0 mm
08:45 AM 82.7°F28.2°C 75.1°F23.9°C 78% Calm Calm -- 30.07 in1018.3 mb - 0.00 in0.0 mm 0.00 in0.0 mm
09:00 AM 82.9°F28.3°C 75.7°F24.3°C 79% 0.1 mph ESE0.2 kmh ESE 2.0 mph3.2 kmh 30.07 in1018.3 mb - 0.00 in0.0 mm 0.00 in0.0 mm
09:15 AM 83.1°F28.4°C 75.1°F23.9°C 77% Calm Calm -- 30.07 in1018.3 mb - 0.00 in0.0 mm 0.00 in0.0 mm
09:30 AM 83.7°F28.7°C 76.5°F24.7°C 79% Calm Calm 1.0 mph1.6 kmh 30.07 in1018.3 mb - 0.00 in0.0 mm 0.00 in0.0 mm
09:45 AM 84.4°F29.1°C 77.9°F25.5°C 81% Calm Calm -- 30.07 in1018.3 mb - 0.00 in0.0 mm 0.00 in0.0 mm
10:00 AM 84.7°F29.3°C 76.3°F24.6°C 76% Calm Calm 1.0 mph1.6 kmh 30.07 in1018.3 mb - 0.00 in0.0 mm 0.00 in0.0 mm
10:15 AM 85.2°F29.6°C 76.8°F24.9°C 76% 0.5 mph SW0.8 kmh SW 2.0 mph3.2 kmh 30.06 in1017.9 mb - 0.00 in0.0 mm 0.00 in0.0 mm
10:30 AM 85.6°F29.8°C 76.8°F24.9°C 75% 0.4 mph S0.6 kmh S 1.0 mph1.6 kmh 30.06 in1017.9 mb - 0.00 in0.0 mm 0.00 in0.0 mm
10:45 AM 86.0°F30.0°C 75.5°F24.2°C 71% 1.2 mph SSW1.9 kmh SSW 2.0 mph3.2 kmh 30.05 in1017.6 mb - 0.00 in0.0 mm 0.00 in0.0 mm
11:00 AM 86.4°F30.2°C 77.1°F25.1°C 74% 1.0 mph WSW1.6 kmh WSW 2.0 mph3.2 kmh 30.05 in1017.6 mb - 0.00 in0.0 mm 0.00 in0.0 mm
11:15 AM 86.9°F30.5°C 77.6°F25.3°C 74% 0.2 mph SE0.3 kmh SE 3.0 mph4.8 kmh 30.04 in1017.3 mb - 0.00 in0.0 mm 0.00 in0.0 mm
11:30 AM 86.8°F30.4°C 77.9°F25.5°C 75% 0.8 mph SE1.3 kmh SE 2.0 mph3.2 kmh 30.04 in1017.3 mb - 0.00 in0.0 mm 0.00 in0.0 mm
11:45 AM 87.3°F30.7°C 78.4°F25.8°C 75% 0.1 mph ESE0.2 kmh ESE 4.0 mph6.4 kmh 30.03 in1016.9 mb - 0.00 in0.0 mm 0.00 in0.0 mm
12:00 PM 87.2°F30.7°C 77.5°F25.3°C 73% 2.3 mph SE3.7 kmh SE 4.0 mph6.4 kmh 30.03 in1016.9 mb - 0.00 in0.0 mm 0.00 in0.0 mm
12:15 PM 87.0°F30.6°C 78.1°F25.6°C 75% 1.8 mph SE2.9 kmh SE 5.0 mph8.0 kmh 30.02 in1016.6 mb - 0.00 in0.0 mm 0.00 in0.0 mm
12:30 PM 87.7°F30.9°C 77.5°F25.3°C 72% 0.9 mph E1.4 kmh E 3.0 mph4.8 kmh 30.02 in1016.6 mb - 0.00 in0.0 mm 0.00 in0.0 mm
12:45 PM 87.5°F30.8°C 78.2°F25.7°C 74% 0.1 mph ESE0.2 kmh ESE -- 30.02 in1016.6 mb - 0.00 in0.0 mm 0.00 in0.0 mm
01:00 PM 87.4°F30.8°C 77.3°F25.2°C 72% 0.7 mph ESE1.1 kmh ESE 2.0 mph3.2 kmh 30.01 in1016.3 mb - 0.00 in0.0 mm 0.00 in0.0 mm
01:15 PM 87.0°F30.6°C 77.3°F25.2°C 73% 0.1 mph SSE0.2 kmh SSE 1.0 mph1.6 kmh 30.01 in1016.3 mb - 0.00 in0.0 mm 0.00 in0.0 mm
01:30 PM 87.2°F30.7°C 77.9°F25.5°C 74% 3.8 mph SSE6.1 kmh SSE 6.0 mph9.7 kmh 30.00 in1015.9 mb - 0.00 in0.0 mm 0.00 in0.0 mm
01:45 PM 87.2°F30.7°C 77.1°F25.1°C 72% 3.8 mph E6.1 kmh E 8.0 mph12.9 kmh 30.00 in1015.9 mb - 0.00 in0.0 mm 0.00 in0.0 mm
02:00 PM 86.6°F30.3°C 77.7°F25.4°C 75% 0.1 mph SSE0.2 kmh SSE 2.0 mph3.2 kmh 29.99 in1015.6 mb - 0.00 in0.0 mm 0.00 in0.0 mm
02:15 PM 87.0°F30.6°C 78.1°F25.6°C 75% 2.1 mph ESE3.4 kmh ESE 3.0 mph4.8 kmh 29.98 in1015.2 mb - 0.00 in0.0 mm 0.00 in0.0 mm
02:30 PM 87.2°F30.7°C 77.1°F25.1°C 72% 1.3 mph SSW2.1 kmh SSW 2.0 mph3.2 kmh 29.97 in1014.9 mb - 0.00 in0.0 mm 0.00 in0.0 mm
02:45 PM 87.4°F30.8°C 77.7°F25.4°C 73% 2.2 mph W3.5 kmh W 3.0 mph4.8 kmh 29.97 in1014.9 mb - 0.00 in0.0 mm 0.00 in0.0 mm
03:00 PM 87.7°F30.9°C 76.7°F24.8°C 70% 3.3 mph S5.3 kmh S 6.0 mph9.7 kmh 29.97 in1014.9 mb - 0.00 in0.0 mm 0.00 in0.0 mm
03:15 PM 87.4°F30.8°C 76.4°F24.7°C 70% 1.1 mph SSE1.8 kmh SSE 3.0 mph4.8 kmh 29.96 in1014.6 mb - 0.00 in0.0 mm 0.00 in0.0 mm
03:30 PM 87.0°F30.6°C 76.9°F24.9°C 72% 0.3 mph SSE0.5 kmh SSE 1.0 mph1.6 kmh 29.97 in1014.9 mb - 0.00 in0.0 mm 0.00 in0.0 mm
03:45 PM 85.5°F29.7°C 75.9°F24.4°C 73% 0.5 mph SE0.8 kmh SE 1.0 mph1.6 kmh 29.97 in1014.9 mb - 0.00 in0.0 mm 0.00 in0.0 mm
04:00 PM 84.3°F29.1°C 75.5°F24.2°C 75% 1.0 mph SE1.6 kmh SE 2.0 mph3.2 kmh 29.96 in1014.6 mb - 0.00 in0.0 mm 0.00 in0.0 mm
04:15 PM 83.2°F28.4°C 75.2°F24.0°C 77% Calm Calm 1.0 mph1.6 kmh 29.96 in1014.6 mb - 0.00 in0.0 mm 0.00 in0.0 mm
04:30 PM 82.6°F28.1°C 75.0°F23.9°C 78% Calm Calm 2.0 mph3.2 kmh 29.96 in1014.6 mb - 0.00 in0.0 mm 0.00 in0.0 mm
04:45 PM 82.5°F28.1°C 75.7°F24.3°C 80% Calm Calm 1.0 mph1.6 kmh 29.95 in1014.2 mb - 0.00 in0.0 mm 0.00 in0.0 mm
05:00 PM 82.6°F28.1°C 75.4°F24.1°C 79% 1.6 mph SE2.6 kmh SE 4.0 mph6.4 kmh 29.95 in1014.2 mb - 0.00 in0.0 mm 0.00 in0.0 mm
05:15 PM 82.4°F28.0°C 74.8°F23.8°C 78% 1.4 mph SE2.3 kmh SE 5.0 mph8.0 kmh 29.95 in1014.2 mb - 0.00 in0.0 mm 0.00 in0.0 mm
05:30 PM 81.9°F27.7°C 74.7°F23.7°C 79% 0.1 mph SSE0.2 kmh SSE -- 29.95 in1014.2 mb - 0.00 in0.0 mm 0.00 in0.0 mm
05:45 PM 81.2°F27.3°C 74.1°F23.4°C 79% 0.1 mph S0.2 kmh S 1.0 mph1.6 kmh 29.95 in1014.2 mb - 0.00 in0.0 mm 0.00 in0.0 mm
06:00 PM 80.7°F27.1°C 74.3°F23.5°C 81% Calm Calm -- 29.94 in1013.9 mb - 0.00 in0.0 mm 0.00 in0.0 mm
06:15 PM 80.2°F26.8°C 74.2°F23.4°C 82% 0.1 mph SSE0.2 kmh SSE -- 29.94 in1013.9 mb - 0.00 in0.0 mm 0.00 in0.0 mm
06:30 PM 79.8°F26.6°C 74.2°F23.4°C 83% 0.4 mph SSW0.6 kmh SSW -- 29.94 in1013.9 mb - 0.00 in0.0 mm 0.00 in0.0 mm
06:45 PM 79.4°F26.3°C 73.8°F23.2°C 83% 0.1 mph S0.2 kmh S 1.0 mph1.6 kmh 29.94 in1013.9 mb - 0.00 in0.0 mm 0.00 in0.0 mm
07:00 PM 79.0°F26.1°C 73.7°F23.2°C 84% 0.4 mph SW0.6 kmh SW 2.0 mph3.2 kmh 29.94 in1013.9 mb - 0.00 in0.0 mm 0.00 in0.0 mm
07:15 PM 78.8°F26.0°C 73.9°F23.3°C 85% Calm Calm -- 29.95 in1014.2 mb - 0.00 in0.0 mm 0.00 in0.0 mm
07:30 PM 78.6°F25.9°C 74.1°F23.4°C 86% Calm Calm 1.0 mph1.6 kmh 29.95 in1014.2 mb - 0.00 in0.0 mm 0.00 in0.0 mm
07:45 PM 78.6°F25.9°C 74.4°F23.6°C 87% Calm Calm -- 29.95 in1014.2 mb - 0.00 in0.0 mm 0.00 in0.0 mm
08:00 PM 78.4°F25.8°C 74.5°F23.6°C 88% Calm Calm -- 29.94 in1013.9 mb - 0.00 in0.0 mm 0.00 in0.0 mm
08:15 PM 78.0°F25.6°C 74.5°F23.6°C 89% Calm Calm -- 29.95 in1014.2 mb - 0.00 in0.0 mm 0.00 in0.0 mm
08:30 PM 77.6°F25.3°C 74.4°F23.6°C 90% 0.1 mph SE0.2 kmh SE 1.0 mph1.6 kmh 29.95 in1014.2 mb - 0.00 in0.0 mm 0.00 in0.0 mm
08:45 PM 77.3°F25.2°C 74.5°F23.6°C 91% Calm Calm -- 29.95 in1014.2 mb - 0.00 in0.0 mm 0.00 in0.0 mm
09:00 PM 77.1°F25.1°C 74.6°F23.7°C 92% Calm Calm 1.0 mph1.6 kmh 29.94 in1013.9 mb - 0.00 in0.0 mm 0.00 in0.0 mm
09:15 PM 77.0°F25.0°C 74.4°F23.6°C 92% Calm Calm -- 29.93 in1013.5 mb - 0.00 in0.0 mm 0.00 in0.0 mm
09:30 PM 76.9°F24.9°C 74.7°F23.7°C 93% Calm Calm -- 29.94 in1013.9 mb - 0.00 in0.0 mm 0.00 in0.0 mm
09:45 PM 76.8°F24.9°C 74.6°F23.7°C 93% Calm Calm -- 29.93 in1013.5 mb - 0.00 in0.0 mm 0.00 in0.0 mm
10:00 PM 77.1°F25.1°C 74.6°F23.7°C 92% 2.6 mph SSE4.2 kmh SSE 13.0 mph20.9 kmh 29.95 in1014.2 mb - 0.00 in0.0 mm 0.00 in0.0 mm
10:15 PM 76.5°F24.7°C 72.7°F22.6°C 88% 0.7 mph NE1.1 kmh NE 2.0 mph3.2 kmh 29.95 in1014.2 mb - 0.07 in1.8 mm 0.07 in1.8 mm
10:30 PM 75.3°F24.1°C 72.1°F22.3°C 90% 0.1 mph ENE0.2 kmh ENE 1.0 mph1.6 kmh 29.94 in1013.9 mb - 0.04 in1.0 mm 0.11 in2.8 mm
10:45 PM 74.3°F23.5°C 71.8°F22.1°C 92% 0.1 mph E0.2 kmh E -- 29.92 in1013.2 mb - 0.03 in0.8 mm 0.14 in3.6 mm
11:00 PM 73.8°F23.2°C 71.6°F22.0°C 93% 1.0 mph ESE1.6 kmh ESE 3.0 mph4.8 kmh 29.92 in1013.2 mb - 0.02 in0.5 mm 0.16 in4.1 mm
11:15 PM 73.4°F23.0°C 71.6°F22.0°C 94% 0.8 mph S1.3 kmh S 2.0 mph3.2 kmh 29.92 in1013.2 mb - 0.00 in0.0 mm 0.16 in4.1 mm
11:30 PM 73.2°F22.9°C 71.4°F21.9°C 94% 2.6 mph N4.2 kmh N 5.0 mph8.0 kmh 29.93 in1013.5 mb - 0.01 in0.3 mm 0.01 in0.3 mm
11:45 PM 73.1°F22.8°C 71.6°F22.0°C 95% 1.2 mph SW1.9 kmh SW 5.0 mph8.0 kmh 29.92 in1013.2 mb - 0.04 in1.0 mm 0.05 in1.3 mm